sensor_id;sensor_type;location;lat;lon;timestamp;P1;durP1;ratioP1;P2;durP2;ratioP2
60710;SDS011;46554;48.138;8.420;2023-07-24T00:02:07;2.38;;;2.15;;
60710;SDS011;46554;48.138;8.420;2023-07-24T00:04:33;2.25;;;1.63;;
60710;SDS011;46554;48.138;8.420;2023-07-24T00:06:59;0.98;;;0.98;;
60710;SDS011;46554;48.138;8.420;2023-07-24T00:09:25;2.50;;;1.73;;
60710;SDS011;46554;48.138;8.420;2023-07-24T00:11:50;5.82;;;1.45;;
60710;SDS011;46554;48.138;8.420;2023-07-24T00:14:18;2.10;;;1.48;;
60710;SDS011;46554;48.138;8.420;2023-07-24T00:16:43;1.60;;;1.50;;
60710;SDS011;46554;48.138;8.420;2023-07-24T00:19:11;1.20;;;1.20;;
60710;SDS011;46554;48.138;8.420;2023-07-24T00:21:37;1.38;;;1.27;;
60710;SDS011;46554;48.138;8.420;2023-07-24T00:24:02;2.72;;;1.45;;
60710;SDS011;46554;48.138;8.420;2023-07-24T00:26:30;3.33;;;1.50;;
60710;SDS011;46554;48.138;8.420;2023-07-24T00:28:59;2.92;;;2.17;;
60710;SDS011;46554;48.138;8.420;2023-07-24T00:31:24;2.40;;;1.92;;
60710;SDS011;46554;48.138;8.420;2023-07-24T00:33:50;4.70;;;1.70;;
60710;SDS011;46554;48.138;8.420;2023-07-24T00:36:15;0.73;;;0.73;;
60710;SDS011;46554;48.138;8.420;2023-07-24T00:38:40;1.65;;;1.05;;
60710;SDS011;46554;48.138;8.420;2023-07-24T00:41:09;1.85;;;1.00;;
60710;SDS011;46554;48.138;8.420;2023-07-24T00:43:34;1.67;;;1.40;;
60710;SDS011;46554;48.138;8.420;2023-07-24T00:46:00;0.70;;;0.70;;
60710;SDS011;46554;48.138;8.420;2023-07-24T00:48:25;2.85;;;2.38;;
60710;SDS011;46554;48.138;8.420;2023-07-24T00:50:51;2.75;;;1.95;;
60710;SDS011;46554;48.138;8.420;2023-07-24T00:53:17;4.13;;;2.17;;
60710;SDS011;46554;48.138;8.420;2023-07-24T00:55:42;2.78;;;1.75;;
60710;SDS011;46554;48.138;8.420;2023-07-24T00:58:10;5.45;;;1.85;;
60710;SDS011;46554;48.138;8.420;2023-07-24T01:00:36;1.42;;;0.95;;
60710;SDS011;46554;48.138;8.420;2023-07-24T01:03:02;3.08;;;1.92;;
60710;SDS011;46554;48.138;8.420;2023-07-24T01:05:28;1.23;;;1.23;;
60710;SDS011;46554;48.138;8.420;2023-07-24T01:07:53;2.05;;;1.17;;
60710;SDS011;46554;48.138;8.420;2023-07-24T01:10:19;0.85;;;0.85;;
60710;SDS011;46554;48.138;8.420;2023-07-24T01:15:37;1.45;;;1.20;;
60710;SDS011;46554;48.138;8.420;2023-07-24T01:18:11;5.55;;;2.80;;
60710;SDS011;46554;48.138;8.420;2023-07-24T01:20:42;3.20;;;1.65;;
60710;SDS011;46554;48.138;8.420;2023-07-24T01:25:56;2.13;;;1.92;;
60710;SDS011;46554;48.138;8.420;2023-07-24T01:28:25;2.50;;;1.52;;
60710;SDS011;46554;48.138;8.420;2023-07-24T01:30:51;5.72;;;2.03;;
60710;SDS011;46554;48.138;8.420;2023-07-24T01:33:17;2.88;;;2.22;;
60710;SDS011;46554;48.138;8.420;2023-07-24T01:35:45;2.75;;;2.25;;
60710;SDS011;46554;48.138;8.420;2023-07-24T01:38:14;2.53;;;2.08;;
60710;SDS011;46554;48.138;8.420;2023-07-24T01:40:40;1.40;;;1.30;;
60710;SDS011;46554;48.138;8.420;2023-07-24T01:43:05;5.10;;;1.38;;
60710;SDS011;46554;48.138;8.420;2023-07-24T01:45:31;2.40;;;2.20;;
60710;SDS011;46554;48.138;8.420;2023-07-24T01:47:57;7.90;;;2.70;;
60710;SDS011;46554;48.138;8.420;2023-07-24T01:50:23;1.73;;;1.65;;
60710;SDS011;46554;48.138;8.420;2023-07-24T01:52:48;2.95;;;1.55;;
60710;SDS011;46554;48.138;8.420;2023-07-24T01:55:13;6.05;;;2.55;;
60710;SDS011;46554;48.138;8.420;2023-07-24T01:57:41;4.45;;;1.70;;
60710;SDS011;46554;48.138;8.420;2023-07-24T02:00:07;3.42;;;1.73;;
60710;SDS011;46554;48.138;8.420;2023-07-24T02:02:33;1.95;;;1.45;;
60710;SDS011;46554;48.138;8.420;2023-07-24T02:04:58;2.63;;;2.15;;
60710;SDS011;46554;48.138;8.420;2023-07-24T02:07:23;1.92;;;1.63;;
60710;SDS011;46554;48.138;8.420;2023-07-24T02:09:49;1.73;;;1.63;;
60710;SDS011;46554;48.138;8.420;2023-07-24T02:12:17;1.75;;;1.55;;
60710;SDS011;46554;48.138;8.420;2023-07-24T02:14:42;2.13;;;1.98;;
60710;SDS011;46554;48.138;8.420;2023-07-24T02:17:07;3.63;;;2.22;;
60710;SDS011;46554;48.138;8.420;2023-07-24T02:19:33;1.52;;;1.30;;
60710;SDS011;46554;48.138;8.420;2023-07-24T02:21:58;3.15;;;2.15;;
60710;SDS011;46554;48.138;8.420;2023-07-24T02:24:26;2.83;;;2.25;;
60710;SDS011;46554;48.138;8.420;2023-07-24T02:26:51;1.77;;;1.67;;
60710;SDS011;46554;48.138;8.420;2023-07-24T02:29:17;3.72;;;1.27;;
60710;SDS011;46554;48.138;8.420;2023-07-24T02:31:42;1.27;;;1.20;;
60710;SDS011;46554;48.138;8.420;2023-07-24T02:34:08;1.35;;;1.00;;
60710;SDS011;46554;48.138;8.420;2023-07-24T02:36:33;2.17;;;1.60;;
60710;SDS011;46554;48.138;8.420;2023-07-24T02:38:58;2.47;;;1.92;;
60710;SDS011;46554;48.138;8.420;2023-07-24T02:41:24;4.80;;;1.48;;
60710;SDS011;46554;48.138;8.420;2023-07-24T02:43:49;1.58;;;1.48;;
60710;SDS011;46554;48.138;8.420;2023-07-24T02:46:14;1.95;;;1.83;;
60710;SDS011;46554;48.138;8.420;2023-07-24T02:48:40;1.38;;;1.30;;
60710;SDS011;46554;48.138;8.420;2023-07-24T02:51:05;1.95;;;1.33;;
60710;SDS011;46554;48.138;8.420;2023-07-24T02:53:31;3.67;;;1.55;;
60710;SDS011;46554;48.138;8.420;2023-07-24T02:55:56;5.57;;;1.65;;
60710;SDS011;46554;48.138;8.420;2023-07-24T02:58:21;4.35;;;1.88;;
60710;SDS011;46554;48.138;8.420;2023-07-24T03:00:49;2.22;;;1.75;;
60710;SDS011;46554;48.138;8.420;2023-07-24T03:03:14;1.73;;;1.55;;
60710;SDS011;46554;48.138;8.420;2023-07-24T03:05:40;2.22;;;1.38;;
60710;SDS011;46554;48.138;8.420;2023-07-24T03:08:05;2.25;;;1.88;;
60710;SDS011;46554;48.138;8.420;2023-07-24T03:10:33;1.40;;;1.30;;
60710;SDS011;46554;48.138;8.420;2023-07-24T03:12:58;1.38;;;0.85;;
60710;SDS011;46554;48.138;8.420;2023-07-24T03:15:26;8.35;;;1.70;;
60710;SDS011;46554;48.138;8.420;2023-07-24T03:17:54;2.70;;;1.80;;
60710;SDS011;46554;48.138;8.420;2023-07-24T03:20:21;1.63;;;1.52;;
60710;SDS011;46554;48.138;8.420;2023-07-24T03:22:47;2.58;;;2.22;;
60710;SDS011;46554;48.138;8.420;2023-07-24T03:25:12;5.78;;;2.08;;
60710;SDS011;46554;48.138;8.420;2023-07-24T03:27:38;1.23;;;1.00;;
60710;SDS011;46554;48.138;8.420;2023-07-24T03:30:04;3.15;;;1.80;;
60710;SDS011;46554;48.138;8.420;2023-07-24T03:32:32;2.63;;;1.92;;
60710;SDS011;46554;48.138;8.420;2023-07-24T03:34:57;6.15;;;1.90;;
60710;SDS011;46554;48.138;8.420;2023-07-24T03:37:22;0.68;;;0.55;;
60710;SDS011;46554;48.138;8.420;2023-07-24T03:39:48;2.95;;;1.13;;
60710;SDS011;46554;48.138;8.420;2023-07-24T03:42:28;0.40;;;0.40;;
60710;SDS011;46554;48.138;8.420;2023-07-24T03:44:57;4.75;;;2.22;;
60710;SDS011;46554;48.138;8.420;2023-07-24T03:47:23;1.85;;;1.42;;
60710;SDS011;46554;48.138;8.420;2023-07-24T03:49:51;2.38;;;2.15;;
60710;SDS011;46554;48.138;8.420;2023-07-24T03:52:18;1.65;;;0.80;;
60710;SDS011;46554;48.138;8.420;2023-07-24T03:54:44;2.50;;;1.70;;
60710;SDS011;46554;48.138;8.420;2023-07-24T03:57:09;4.18;;;1.92;;
60710;SDS011;46554;48.138;8.420;2023-07-24T03:59:35;5.60;;;1.55;;
60710;SDS011;46554;48.138;8.420;2023-07-24T04:02:01;2.55;;;1.48;;
60710;SDS011;46554;48.138;8.420;2023-07-24T04:04:26;3.00;;;2.22;;
60710;SDS011;46554;48.138;8.420;2023-07-24T04:06:51;4.78;;;2.25;;
60710;SDS011;46554;48.138;8.420;2023-07-24T04:09:17;3.40;;;1.67;;
60710;SDS011;46554;48.138;8.420;2023-07-24T04:11:42;1.42;;;1.33;;
60710;SDS011;46554;48.138;8.420;2023-07-24T04:14:08;2.65;;;2.35;;
60710;SDS011;46554;48.138;8.420;2023-07-24T04:16:34;1.63;;;1.52;;
60710;SDS011;46554;48.138;8.420;2023-07-24T04:18:59;1.42;;;1.35;;
60710;SDS011;46554;48.138;8.420;2023-07-24T04:21:24;2.80;;;2.55;;
60710;SDS011;46554;48.138;8.420;2023-07-24T04:23:52;2.20;;;1.95;;
60710;SDS011;46554;48.138;8.420;2023-07-24T04:26:18;2.25;;;1.52;;
60710;SDS011;46554;48.138;8.420;2023-07-24T04:28:45;4.70;;;2.17;;
60710;SDS011;46554;48.138;8.420;2023-07-24T04:31:13;1.50;;;0.70;;
60710;SDS011;46554;48.138;8.420;2023-07-24T04:33:39;0.88;;;0.65;;
60710;SDS011;46554;48.138;8.420;2023-07-24T04:36:04;2.45;;;1.20;;
60710;SDS011;46554;48.138;8.420;2023-07-24T04:38:34;1.25;;;1.15;;
60710;SDS011;46554;48.138;8.420;2023-07-24T04:41:00;1.30;;;0.90;;
60710;SDS011;46554;48.138;8.420;2023-07-24T04:43:28;1.20;;;1.00;;
60710;SDS011;46554;48.138;8.420;2023-07-24T04:45:57;1.80;;;1.35;;
60710;SDS011;46554;48.138;8.420;2023-07-24T04:48:22;7.30;;;1.38;;
60710;SDS011;46554;48.138;8.420;2023-07-24T04:50:54;4.25;;;1.65;;
60710;SDS011;46554;48.138;8.420;2023-07-24T04:53:20;1.65;;;1.55;;
60710;SDS011;46554;48.138;8.420;2023-07-24T04:55:46;1.52;;;1.42;;
60710;SDS011;46554;48.138;8.420;2023-07-24T04:58:11;3.60;;;2.75;;
60710;SDS011;46554;48.138;8.420;2023-07-24T05:00:36;2.15;;;1.73;;
60710;SDS011;46554;48.138;8.420;2023-07-24T05:03:05;2.08;;;1.30;;
60710;SDS011;46554;48.138;8.420;2023-07-24T05:05:31;3.75;;;2.05;;
60710;SDS011;46554;48.138;8.420;2023-07-24T05:07:57;2.67;;;1.23;;
60710;SDS011;46554;48.138;8.420;2023-07-24T05:10:22;10.98;;;1.75;;
60710;SDS011;46554;48.138;8.420;2023-07-24T05:12:50;1.67;;;1.00;;
60710;SDS011;46554;48.138;8.420;2023-07-24T05:15:19;2.78;;;1.85;;
60710;SDS011;46554;48.138;8.420;2023-07-24T05:17:45;1.00;;;0.93;;
60710;SDS011;46554;48.138;8.420;2023-07-24T05:20:10;3.20;;;1.20;;
60710;SDS011;46554;48.138;8.420;2023-07-24T05:22:36;1.73;;;1.63;;
60710;SDS011;46554;48.138;8.420;2023-07-24T05:25:06;0.75;;;0.75;;
60710;SDS011;46554;48.138;8.420;2023-07-24T05:27:32;2.17;;;1.58;;
60710;SDS011;46554;48.138;8.420;2023-07-24T05:29:57;3.17;;;2.10;;
60710;SDS011;46554;48.138;8.420;2023-07-24T05:32:22;1.35;;;1.25;;
60710;SDS011;46554;48.138;8.420;2023-07-24T05:34:52;1.35;;;1.23;;
60710;SDS011;46554;48.138;8.420;2023-07-24T05:37:17;4.82;;;1.33;;
60710;SDS011;46554;48.138;8.420;2023-07-24T05:39:43;2.65;;;1.60;;
60710;SDS011;46554;48.138;8.420;2023-07-24T05:42:08;1.38;;;1.27;;
60710;SDS011;46554;48.138;8.420;2023-07-24T05:44:34;6.28;;;1.95;;
60710;SDS011;46554;48.138;8.420;2023-07-24T05:47:02;1.88;;;1.70;;
60710;SDS011;46554;48.138;8.420;2023-07-24T05:49:27;1.90;;;1.55;;
60710;SDS011;46554;48.138;8.420;2023-07-24T05:51:53;1.10;;;1.02;;
60710;SDS011;46554;48.138;8.420;2023-07-24T05:54:19;2.60;;;1.70;;
60710;SDS011;46554;48.138;8.420;2023-07-24T05:56:44;0.63;;;0.63;;
60710;SDS011;46554;48.138;8.420;2023-07-24T05:59:10;0.60;;;0.60;;
60710;SDS011;46554;48.138;8.420;2023-07-24T06:01:35;7.25;;;1.23;;
60710;SDS011;46554;48.138;8.420;2023-07-24T06:04:03;5.03;;;1.38;;
60710;SDS011;46554;48.138;8.420;2023-07-24T06:06:28;5.10;;;1.25;;
60710;SDS011;46554;48.138;8.420;2023-07-24T06:08:54;1.00;;;0.80;;
60710;SDS011;46554;48.138;8.420;2023-07-24T06:11:19;2.28;;;0.98;;
60710;SDS011;46554;48.138;8.420;2023-07-24T06:13:44;1.77;;;1.13;;
60710;SDS011;46554;48.138;8.420;2023-07-24T06:16:10;4.10;;;1.27;;
60710;SDS011;46554;48.138;8.420;2023-07-24T06:18:37;3.55;;;2.10;;
60710;SDS011;46554;48.138;8.420;2023-07-24T06:21:05;1.27;;;1.17;;
60710;SDS011;46554;48.138;8.420;2023-07-24T06:23:30;2.08;;;1.40;;
60710;SDS011;46554;48.138;8.420;2023-07-24T06:25:56;1.42;;;1.17;;
60710;SDS011;46554;48.138;8.420;2023-07-24T06:28:21;1.23;;;1.13;;
60710;SDS011;46554;48.138;8.420;2023-07-24T06:30:47;1.10;;;0.77;;
60710;SDS011;46554;48.138;8.420;2023-07-24T06:33:17;1.00;;;0.80;;
60710;SDS011;46554;48.138;8.420;2023-07-24T06:35:46;1.92;;;1.75;;
60710;SDS011;46554;48.138;8.420;2023-07-24T06:38:12;2.35;;;1.27;;
60710;SDS011;46554;48.138;8.420;2023-07-24T06:40:38;2.63;;;1.70;;
60710;SDS011;46554;48.138;8.420;2023-07-24T06:43:03;1.52;;;1.42;;
60710;SDS011;46554;48.138;8.420;2023-07-24T06:45:28;1.80;;;1.13;;
60710;SDS011;46554;48.138;8.420;2023-07-24T06:47:54;3.45;;;0.85;;
60710;SDS011;46554;48.138;8.420;2023-07-24T06:50:19;0.73;;;0.73;;
60710;SDS011;46554;48.138;8.420;2023-07-24T06:52:47;1.17;;;1.00;;
60710;SDS011;46554;48.138;8.420;2023-07-24T06:55:12;5.55;;;1.02;;
60710;SDS011;46554;48.138;8.420;2023-07-24T06:57:43;1.42;;;1.38;;
60710;SDS011;46554;48.138;8.420;2023-07-24T07:00:08;3.85;;;1.80;;
60710;SDS011;46554;48.138;8.420;2023-07-24T07:02:37;0.75;;;0.75;;
60710;SDS011;46554;48.138;8.420;2023-07-24T07:05:06;1.05;;;0.90;;
60710;SDS011;46554;48.138;8.420;2023-07-24T07:07:31;1.13;;;1.02;;
60710;SDS011;46554;48.138;8.420;2023-07-24T07:09:57;1.10;;;1.00;;
60710;SDS011;46554;48.138;8.420;2023-07-24T07:12:22;4.13;;;1.17;;
60710;SDS011;46554;48.138;8.420;2023-07-24T07:14:47;1.17;;;0.85;;
60710;SDS011;46554;48.138;8.420;2023-07-24T07:17:13;1.00;;;0.77;;
60710;SDS011;46554;48.138;8.420;2023-07-24T07:19:38;2.25;;;1.33;;
60710;SDS011;46554;48.138;8.420;2023-07-24T07:22:04;2.45;;;1.65;;
60710;SDS011;46554;48.138;8.420;2023-07-24T07:24:29;1.10;;;1.10;;
60710;SDS011;46554;48.138;8.420;2023-07-24T07:26:54;0.52;;;0.52;;
60710;SDS011;46554;48.138;8.420;2023-07-24T07:29:20;1.20;;;1.10;;
60710;SDS011;46554;48.138;8.420;2023-07-24T07:31:45;0.82;;;0.82;;
60710;SDS011;46554;48.138;8.420;2023-07-24T07:34:11;2.22;;;1.48;;
60710;SDS011;46554;48.138;8.420;2023-07-24T07:36:36;1.05;;;1.02;;
60710;SDS011;46554;48.138;8.420;2023-07-24T07:39:02;1.08;;;0.77;;
60710;SDS011;46554;48.138;8.420;2023-07-24T07:41:27;1.13;;;0.77;;
60710;SDS011;46554;48.138;8.420;2023-07-24T07:43:55;1.98;;;1.25;;
60710;SDS011;46554;48.138;8.420;2023-07-24T07:46:22;0.63;;;0.63;;
60710;SDS011;46554;48.138;8.420;2023-07-24T07:48:48;2.53;;;1.10;;
60710;SDS011;46554;48.138;8.420;2023-07-24T07:51:14;1.42;;;1.33;;
60710;SDS011;46554;48.138;8.420;2023-07-24T07:53:39;3.80;;;0.90;;
60710;SDS011;46554;48.138;8.420;2023-07-24T07:56:05;1.45;;;1.38;;
60710;SDS011;46554;48.138;8.420;2023-07-24T07:58:30;2.60;;;1.65;;
60710;SDS011;46554;48.138;8.420;2023-07-24T08:00:56;1.42;;;1.02;;
60710;SDS011;46554;48.138;8.420;2023-07-24T08:03:21;3.13;;;1.67;;
60710;SDS011;46554;48.138;8.420;2023-07-24T08:05:46;1.65;;;1.40;;
60710;SDS011;46554;48.138;8.420;2023-07-24T08:08:12;5.03;;;1.63;;
60710;SDS011;46554;48.138;8.420;2023-07-24T08:10:38;2.28;;;1.33;;
60710;SDS011;46554;48.138;8.420;2023-07-24T08:13:03;3.42;;;1.17;;
60710;SDS011;46554;48.138;8.420;2023-07-24T08:15:29;1.60;;;1.45;;
60710;SDS011;46554;48.138;8.420;2023-07-24T08:17:58;4.63;;;1.70;;
60710;SDS011;46554;48.138;8.420;2023-07-24T08:20:26;0.88;;;0.75;;
60710;SDS011;46554;48.138;8.420;2023-07-24T08:22:51;2.67;;;1.20;;
60710;SDS011;46554;48.138;8.420;2023-07-24T08:25:19;0.90;;;0.80;;
60710;SDS011;46554;48.138;8.420;2023-07-24T08:27:44;3.83;;;1.30;;
60710;SDS011;46554;48.138;8.420;2023-07-24T08:30:10;2.30;;;1.83;;
60710;SDS011;46554;48.138;8.420;2023-07-24T08:32:36;1.15;;;1.00;;
60710;SDS011;46554;48.138;8.420;2023-07-24T08:35:01;5.32;;;1.25;;
60710;SDS011;46554;48.138;8.420;2023-07-24T08:37:26;4.53;;;1.63;;
60710;SDS011;46554;48.138;8.420;2023-07-24T08:39:52;1.48;;;1.27;;
60710;SDS011;46554;48.138;8.420;2023-07-24T08:42:17;1.67;;;1.55;;
60710;SDS011;46554;48.138;8.420;2023-07-24T08:44:45;4.70;;;1.98;;
60710;SDS011;46554;48.138;8.420;2023-07-24T08:47:11;5.43;;;1.45;;
60710;SDS011;46554;48.138;8.420;2023-07-24T08:49:39;2.42;;;1.45;;
60710;SDS011;46554;48.138;8.420;2023-07-24T08:52:07;1.75;;;1.48;;
60710;SDS011;46554;48.138;8.420;2023-07-24T08:54:38;3.95;;;1.23;;
60710;SDS011;46554;48.138;8.420;2023-07-24T08:57:06;1.50;;;1.40;;
60710;SDS011;46554;48.138;8.420;2023-07-24T08:59:31;1.30;;;1.20;;
60710;SDS011;46554;48.138;8.420;2023-07-24T09:01:57;1.65;;;1.05;;
60710;SDS011;46554;48.138;8.420;2023-07-24T09:04:23;2.83;;;1.60;;
60710;SDS011;46554;48.138;8.420;2023-07-24T09:06:49;1.48;;;1.35;;
60710;SDS011;46554;48.138;8.420;2023-07-24T09:09:15;0.82;;;0.82;;
60710;SDS011;46554;48.138;8.420;2023-07-24T09:11:53;1.25;;;0.90;;
60710;SDS011;46554;48.138;8.420;2023-07-24T09:14:20;0.75;;;0.73;;
60710;SDS011;46554;48.138;8.420;2023-07-24T09:16:49;1.95;;;1.33;;
60710;SDS011;46554;48.138;8.420;2023-07-24T09:19:20;0.90;;;0.90;;
60710;SDS011;46554;48.138;8.420;2023-07-24T09:21:45;0.68;;;0.68;;
60710;SDS011;46554;48.138;8.420;2023-07-24T09:24:14;1.25;;;1.15;;
60710;SDS011;46554;48.138;8.420;2023-07-24T09:26:52;2.40;;;0.93;;
60710;SDS011;46554;48.138;8.420;2023-07-24T09:29:18;3.95;;;1.30;;
60710;SDS011;46554;48.138;8.420;2023-07-24T09:31:44;1.40;;;1.30;;
60710;SDS011;46554;48.138;8.420;2023-07-24T09:34:14;1.75;;;1.63;;
60710;SDS011;46554;48.138;8.420;2023-07-24T09:36:42;0.70;;;0.70;;
60710;SDS011;46554;48.138;8.420;2023-07-24T09:39:09;1.77;;;0.90;;
60710;SDS011;46554;48.138;8.420;2023-07-24T09:41:36;0.65;;;0.65;;
60710;SDS011;46554;48.138;8.420;2023-07-24T09:44:02;1.20;;;1.10;;
60710;SDS011;46554;48.138;8.420;2023-07-24T09:46:30;1.08;;;0.95;;
60710;SDS011;46554;48.138;8.420;2023-07-24T09:48:57;1.55;;;0.57;;
60710;SDS011;46554;48.138;8.420;2023-07-24T09:51:25;1.65;;;0.73;;
60710;SDS011;46554;48.138;8.420;2023-07-24T09:53:54;1.27;;;0.70;;
60710;SDS011;46554;48.138;8.420;2023-07-24T09:56:21;1.42;;;1.17;;
60710;SDS011;46554;48.138;8.420;2023-07-24T09:58:50;0.52;;;0.52;;
60710;SDS011;46554;48.138;8.420;2023-07-24T10:01:20;1.10;;;1.03;;
60710;SDS011;46554;48.138;8.420;2023-07-24T10:03:48;3.50;;;0.63;;
60710;SDS011;46554;48.138;8.420;2023-07-24T10:06:17;0.98;;;0.75;;
60710;SDS011;46554;48.138;8.420;2023-07-24T10:08:43;1.15;;;0.82;;
60710;SDS011;46554;48.138;8.420;2023-07-24T10:11:13;1.77;;;1.30;;
60710;SDS011;46554;48.138;8.420;2023-07-24T10:13:41;0.88;;;0.73;;
60710;SDS011;46554;48.138;8.420;2023-07-24T10:16:09;2.80;;;1.35;;
60710;SDS011;46554;48.138;8.420;2023-07-24T10:18:35;2.17;;;1.08;;
60710;SDS011;46554;48.138;8.420;2023-07-24T10:21:07;0.68;;;0.63;;
60710;SDS011;46554;48.138;8.420;2023-07-24T10:23:37;2.08;;;0.57;;
60710;SDS011;46554;48.138;8.420;2023-07-24T10:26:08;0.70;;;0.50;;
60710;SDS011;46554;48.138;8.420;2023-07-24T10:28:36;1.05;;;1.00;;
60710;SDS011;46554;48.138;8.420;2023-07-24T10:31:18;1.15;;;0.95;;
60710;SDS011;46554;48.138;8.420;2023-07-24T10:33:45;1.08;;;0.85;;
60710;SDS011;46554;48.138;8.420;2023-07-24T10:36:11;0.30;;;0.30;;
60710;SDS011;46554;48.138;8.420;2023-07-24T10:38:41;1.10;;;0.73;;
60710;SDS011;46554;48.138;8.420;2023-07-24T10:41:07;0.35;;;0.35;;
60710;SDS011;46554;48.138;8.420;2023-07-24T10:43:41;0.47;;;0.47;;
60710;SDS011;46554;48.138;8.420;2023-07-24T10:46:06;0.57;;;0.20;;
60710;SDS011;46554;48.138;8.420;2023-07-24T10:48:34;0.65;;;0.25;;
60710;SDS011;46554;48.138;8.420;2023-07-24T10:51:05;0.98;;;0.25;;
60710;SDS011;46554;48.138;8.420;2023-07-24T10:53:31;0.73;;;0.68;;
60710;SDS011;46554;48.138;8.420;2023-07-24T10:55:59;0.10;;;0.10;;
60710;SDS011;46554;48.138;8.420;2023-07-24T10:58:30;0.68;;;0.63;;
60710;SDS011;46554;48.138;8.420;2023-07-24T11:00:56;0.98;;;0.85;;
60710;SDS011;46554;48.138;8.420;2023-07-24T11:03:22;0.52;;;0.47;;
60710;SDS011;46554;48.138;8.420;2023-07-24T11:05:48;0.82;;;0.45;;
60710;SDS011;46554;48.138;8.420;2023-07-24T11:08:15;0.50;;;0.43;;
60710;SDS011;46554;48.138;8.420;2023-07-24T11:10:59;4.20;;;1.35;;
60710;SDS011;46554;48.138;8.420;2023-07-24T11:13:27;0.73;;;0.60;;
60710;SDS011;46554;48.138;8.420;2023-07-24T11:15:53;0.30;;;0.30;;
60710;SDS011;46554;48.138;8.420;2023-07-24T11:18:19;0.43;;;0.43;;
60710;SDS011;46554;48.138;8.420;2023-07-24T11:20:51;0.70;;;0.50;;
60710;SDS011;46554;48.138;8.420;2023-07-24T11:23:20;1.63;;;1.15;;
60710;SDS011;46554;48.138;8.420;2023-07-24T11:25:47;0.50;;;0.43;;
60710;SDS011;46554;48.138;8.420;2023-07-24T11:28:14;1.48;;;0.98;;
60710;SDS011;46554;48.138;8.420;2023-07-24T11:30:40;0.40;;;0.40;;
60710;SDS011;46554;48.138;8.420;2023-07-24T11:33:07;0.95;;;0.95;;
60710;SDS011;46554;48.138;8.420;2023-07-24T11:35:33;2.67;;;0.38;;
60710;SDS011;46554;48.138;8.420;2023-07-24T11:38:02;0.55;;;0.55;;
60710;SDS011;46554;48.138;8.420;2023-07-24T11:40:38;0.45;;;0.45;;
60710;SDS011;46554;48.138;8.420;2023-07-24T11:43:19;1.00;;;0.93;;
60710;SDS011;46554;48.138;8.420;2023-07-24T11:45:46;0.22;;;0.20;;
60710;SDS011;46554;48.138;8.420;2023-07-24T11:48:13;1.52;;;0.77;;
60710;SDS011;46554;48.138;8.420;2023-07-24T11:50:45;0.15;;;0.15;;
60710;SDS011;46554;48.138;8.420;2023-07-24T11:53:24;0.80;;;0.65;;
60710;SDS011;46554;48.138;8.420;2023-07-24T11:55:51;1.27;;;0.63;;
60710;SDS011;46554;48.138;8.420;2023-07-24T11:58:18;0.30;;;0.30;;
60710;SDS011;46554;48.138;8.420;2023-07-24T12:00:45;0.65;;;0.65;;
60710;SDS011;46554;48.138;8.420;2023-07-24T12:03:11;1.73;;;0.52;;
60710;SDS011;46554;48.138;8.420;2023-07-24T12:05:38;0.40;;;0.40;;
60710;SDS011;46554;48.138;8.420;2023-07-24T12:08:04;0.15;;;0.15;;
60710;SDS011;46554;48.138;8.420;2023-07-24T12:10:35;0.30;;;0.30;;
60710;SDS011;46554;48.138;8.420;2023-07-24T12:13:01;1.23;;;0.55;;
60710;SDS011;46554;48.138;8.420;2023-07-24T12:15:26;0.60;;;0.52;;
60710;SDS011;46554;48.138;8.420;2023-07-24T12:17:52;0.60;;;0.60;;
60710;SDS011;46554;48.138;8.420;2023-07-24T12:20:17;0.20;;;0.20;;
60710;SDS011;46554;48.138;8.420;2023-07-24T12:22:43;0.10;;;0.10;;
60710;SDS011;46554;48.138;8.420;2023-07-24T12:25:08;0.22;;;0.22;;
60710;SDS011;46554;48.138;8.420;2023-07-24T12:27:35;1.15;;;1.05;;
60710;SDS011;46554;48.138;8.420;2023-07-24T12:30:02;0.35;;;0.35;;
60710;SDS011;46554;48.138;8.420;2023-07-24T12:32:28;1.85;;;0.68;;
60710;SDS011;46554;48.138;8.420;2023-07-24T12:34:55;0.32;;;0.32;;
60710;SDS011;46554;48.138;8.420;2023-07-24T12:37:23;1.17;;;0.65;;
60710;SDS011;46554;48.138;8.420;2023-07-24T12:39:49;0.50;;;0.50;;
60710;SDS011;46554;48.138;8.420;2023-07-24T12:42:17;0.77;;;0.77;;
60710;SDS011;46554;48.138;8.420;2023-07-24T12:44:44;0.60;;;0.60;;
60710;SDS011;46554;48.138;8.420;2023-07-24T12:47:10;0.30;;;0.30;;
60710;SDS011;46554;48.138;8.420;2023-07-24T12:49:39;0.52;;;0.52;;
60710;SDS011;46554;48.138;8.420;2023-07-24T12:52:04;0.88;;;0.88;;
60710;SDS011;46554;48.138;8.420;2023-07-24T12:54:32;2.25;;;0.88;;
60710;SDS011;46554;48.138;8.420;2023-07-24T12:56:58;1.73;;;0.77;;
60710;SDS011;46554;48.138;8.420;2023-07-24T12:59:24;0.40;;;0.40;;
60710;SDS011;46554;48.138;8.420;2023-07-24T13:01:49;1.73;;;0.68;;
60710;SDS011;46554;48.138;8.420;2023-07-24T13:04:14;0.40;;;0.40;;
60710;SDS011;46554;48.138;8.420;2023-07-24T13:06:40;0.63;;;0.43;;
60710;SDS011;46554;48.138;8.420;2023-07-24T13:09:05;0.60;;;0.60;;
60710;SDS011;46554;48.138;8.420;2023-07-24T13:11:35;2.38;;;0.65;;
60710;SDS011;46554;48.138;8.420;2023-07-24T13:14:01;0.30;;;0.30;;
60710;SDS011;46554;48.138;8.420;2023-07-24T13:16:26;0.30;;;0.30;;
60710;SDS011;46554;48.138;8.420;2023-07-24T13:18:52;0.25;;;0.25;;
60710;SDS011;46554;48.138;8.420;2023-07-24T13:21:20;1.30;;;0.40;;
60710;SDS011;46554;48.138;8.420;2023-07-24T13:23:45;0.10;;;0.10;;
60710;SDS011;46554;48.138;8.420;2023-07-24T13:26:11;1.17;;;0.63;;
60710;SDS011;46554;48.138;8.420;2023-07-24T13:28:37;0.77;;;0.20;;
60710;SDS011;46554;48.138;8.420;2023-07-24T13:31:19;0.30;;;0.30;;
60710;SDS011;46554;48.138;8.420;2023-07-24T13:33:45;0.47;;;0.47;;
60710;SDS011;46554;48.138;8.420;2023-07-24T13:36:14;2.45;;;1.17;;
60710;SDS011;46554;48.138;8.420;2023-07-24T13:38:39;0.88;;;0.82;;
60710;SDS011;46554;48.138;8.420;2023-07-24T13:41:11;1.85;;;0.60;;
60710;SDS011;46554;48.138;8.420;2023-07-24T13:43:46;1.85;;;0.80;;
60710;SDS011;46554;48.138;8.420;2023-07-24T13:46:17;0.10;;;0.10;;
60710;SDS011;46554;48.138;8.420;2023-07-24T13:48:50;0.60;;;0.50;;
60710;SDS011;46554;48.138;8.420;2023-07-24T13:56:35;2.38;;;0.73;;
60710;SDS011;46554;48.138;8.420;2023-07-24T13:59:01;0.38;;;0.30;;
60710;SDS011;46554;48.138;8.420;2023-07-24T14:01:27;0.10;;;0.10;;
60710;SDS011;46554;48.138;8.420;2023-07-24T14:03:53;0.28;;;0.28;;
60710;SDS011;46554;48.138;8.420;2023-07-24T14:06:18;1.65;;;0.55;;
60710;SDS011;46554;48.138;8.420;2023-07-24T14:08:46;1.67;;;1.52;;
60710;SDS011;46554;48.138;8.420;2023-07-24T14:11:11;0.55;;;0.55;;
60710;SDS011;46554;48.138;8.420;2023-07-24T14:13:36;0.63;;;0.60;;
60710;SDS011;46554;48.138;8.420;2023-07-24T14:16:02;0.88;;;0.30;;
60710;SDS011;46554;48.138;8.420;2023-07-24T14:18:27;0.75;;;0.40;;
60710;SDS011;46554;48.138;8.420;2023-07-24T14:20:53;1.35;;;0.95;;
60710;SDS011;46554;48.138;8.420;2023-07-24T14:23:20;1.35;;;0.43;;
60710;SDS011;46554;48.138;8.420;2023-07-24T14:25:45;1.13;;;0.85;;
60710;SDS011;46554;48.138;8.420;2023-07-24T14:28:11;1.08;;;0.68;;
60710;SDS011;46554;48.138;8.420;2023-07-24T14:30:39;0.52;;;0.52;;
60710;SDS011;46554;48.138;8.420;2023-07-24T14:33:04;0.20;;;0.20;;
60710;SDS011;46554;48.138;8.420;2023-07-24T14:35:30;0.68;;;0.68;;
60710;SDS011;46554;48.138;8.420;2023-07-24T14:37:55;1.00;;;0.90;;
60710;SDS011;46554;48.138;8.420;2023-07-24T14:40:20;2.58;;;1.25;;
60710;SDS011;46554;48.138;8.420;2023-07-24T14:42:46;4.43;;;1.02;;
60710;SDS011;46554;48.138;8.420;2023-07-24T14:45:13;1.17;;;1.02;;
60710;SDS011;46554;48.138;8.420;2023-07-24T14:47:39;0.73;;;0.73;;
60710;SDS011;46554;48.138;8.420;2023-07-24T14:50:04;0.73;;;0.73;;
60710;SDS011;46554;48.138;8.420;2023-07-24T14:52:32;0.45;;;0.40;;
60710;SDS011;46554;48.138;8.420;2023-07-24T14:54:58;0.82;;;0.82;;
60710;SDS011;46554;48.138;8.420;2023-07-24T14:57:24;1.00;;;0.82;;